Terminal Aerodrome Forecast
Issued by NWS

Home | Current Version | Previous Version | Text Only | Print | Product List | Glossary On
Versions: 1 2 3 4 5 6 7 8 9 10 11 12 13 14 15 16 17 18 19 20 21 22 23 24
000
FTUS45 KCYS 211135
TAFAIA
TAF
KAIA 211135Z 2112/2212 22008KT P6SM SCT250
     FM211700 23013KT P6SM SCT080 BKN150
     FM212000 26017G27KT P6SM BKN050 OVC100
     FM220000 30015G24KT 6SM -RASN BKN030 OVC050=

USA.gov is the U.S. government's official web portal to all federal, state and local government web resources and services.